sensor_id;sensor_type;location;lat;lon;timestamp;P1;durP1;ratioP1;P2;durP2;ratioP2
36475;SDS011;56615;42.682;23.364;2023-09-19T00:03:28;9.32;;;4.57;;
36475;SDS011;56615;42.682;23.364;2023-09-19T00:05:55;8.85;;;4.13;;
36475;SDS011;56615;42.682;23.364;2023-09-19T00:08:27;7.25;;;4.38;;
36475;SDS011;56615;42.682;23.364;2023-09-19T00:10:53;9.95;;;4.30;;
36475;SDS011;56615;42.682;23.364;2023-09-19T00:13:19;7.40;;;4.32;;
36475;SDS011;56615;42.682;23.364;2023-09-19T00:15:46;8.13;;;4.30;;
36475;SDS011;56615;42.682;23.364;2023-09-19T00:18:15;7.95;;;4.18;;
36475;SDS011;56615;42.682;23.364;2023-09-19T00:21:02;8.32;;;4.50;;
36475;SDS011;56615;42.682;23.364;2023-09-19T00:23:51;11.43;;;4.65;;
36475;SDS011;56615;42.682;23.364;2023-09-19T00:26:17;9.50;;;4.45;;
36475;SDS011;56615;42.682;23.364;2023-09-19T00:28:43;10.18;;;4.88;;
36475;SDS011;56615;42.682;23.364;2023-09-19T00:31:09;9.13;;;4.72;;
36475;SDS011;56615;42.682;23.364;2023-09-19T00:33:34;11.93;;;4.78;;
36475;SDS011;56615;42.682;23.364;2023-09-19T00:36:05;11.38;;;4.38;;
36475;SDS011;56615;42.682;23.364;2023-09-19T00:38:31;10.15;;;4.75;;
36475;SDS011;56615;42.682;23.364;2023-09-19T00:40:57;9.98;;;4.35;;
36475;SDS011;56615;42.682;23.364;2023-09-19T00:43:22;9.05;;;4.35;;
36475;SDS011;56615;42.682;23.364;2023-09-19T00:45:50;9.30;;;4.47;;
36475;SDS011;56615;42.682;23.364;2023-09-19T00:48:17;8.35;;;4.82;;
36475;SDS011;56615;42.682;23.364;2023-09-19T00:50:43;9.50;;;4.70;;
36475;SDS011;56615;42.682;23.364;2023-09-19T00:53:09;11.40;;;4.63;;
36475;SDS011;56615;42.682;23.364;2023-09-19T00:55:36;10.88;;;5.05;;
36475;SDS011;56615;42.682;23.364;2023-09-19T00:58:02;7.90;;;4.78;;
36475;SDS011;56615;42.682;23.364;2023-09-19T01:00:31;10.65;;;4.90;;
36475;SDS011;56615;42.682;23.364;2023-09-19T01:02:58;9.60;;;4.45;;
36475;SDS011;56615;42.682;23.364;2023-09-19T01:05:29;9.05;;;5.30;;
36475;SDS011;56615;42.682;23.364;2023-09-19T01:07:55;10.05;;;5.20;;
36475;SDS011;56615;42.682;23.364;2023-09-19T01:10:20;11.15;;;5.30;;
36475;SDS011;56615;42.682;23.364;2023-09-19T01:15:49;12.10;;;5.97;;
36475;SDS011;56615;42.682;23.364;2023-09-19T01:18:43;11.63;;;5.53;;
36475;SDS011;56615;42.682;23.364;2023-09-19T01:21:18;10.63;;;5.40;;
36475;SDS011;56615;42.682;23.364;2023-09-19T01:24:16;9.52;;;5.13;;
36475;SDS011;56615;42.682;23.364;2023-09-19T01:29:44;10.32;;;5.93;;
36475;SDS011;56615;42.682;23.364;2023-09-19T01:32:50;8.82;;;5.32;;
36475;SDS011;56615;42.682;23.364;2023-09-19T01:35:17;9.68;;;5.65;;
36475;SDS011;56615;42.682;23.364;2023-09-19T01:37:45;10.23;;;5.80;;
36475;SDS011;56615;42.682;23.364;2023-09-19T01:40:16;12.07;;;6.00;;
36475;SDS011;56615;42.682;23.364;2023-09-19T01:45:51;12.38;;;6.15;;
36475;SDS011;56615;42.682;23.364;2023-09-19T01:48:35;11.02;;;6.35;;
36475;SDS011;56615;42.682;23.364;2023-09-19T01:51:14;12.20;;;6.78;;
36475;SDS011;56615;42.682;23.364;2023-09-19T01:54:03;13.40;;;6.75;;
36475;SDS011;56615;42.682;23.364;2023-09-19T01:59:57;12.93;;;7.30;;
36475;SDS011;56615;42.682;23.364;2023-09-19T02:02:05;11.95;;;7.47;;
36475;SDS011;56615;42.682;23.364;2023-09-19T02:04:32;11.75;;;7.13;;
36475;SDS011;56615;42.682;23.364;2023-09-19T02:07:03;13.25;;;7.40;;
36475;SDS011;56615;42.682;23.364;2023-09-19T02:09:30;11.27;;;6.70;;
36475;SDS011;56615;42.682;23.364;2023-09-19T02:12:01;13.57;;;7.28;;
36475;SDS011;56615;42.682;23.364;2023-09-19T02:14:32;10.32;;;6.10;;
36475;SDS011;56615;42.682;23.364;2023-09-19T02:17:01;12.13;;;6.70;;
36475;SDS011;56615;42.682;23.364;2023-09-19T02:19:32;12.27;;;6.63;;
36475;SDS011;56615;42.682;23.364;2023-09-19T02:21:59;10.73;;;5.70;;
36475;SDS011;56615;42.682;23.364;2023-09-19T02:27:34;9.45;;;5.97;;
36475;SDS011;56615;42.682;23.364;2023-09-19T02:29:59;12.70;;;5.88;;
36475;SDS011;56615;42.682;23.364;2023-09-19T02:32:30;12.25;;;6.03;;
36475;SDS011;56615;42.682;23.364;2023-09-19T02:35:00;11.43;;;5.90;;
36475;SDS011;56615;42.682;23.364;2023-09-19T02:37:25;9.30;;;5.15;;
36475;SDS011;56615;42.682;23.364;2023-09-19T02:40:01;9.57;;;5.40;;
36475;SDS011;56615;42.682;23.364;2023-09-19T02:43:08;9.93;;;5.50;;
36475;SDS011;56615;42.682;23.364;2023-09-19T02:45:34;10.40;;;5.53;;
36475;SDS011;56615;42.682;23.364;2023-09-19T02:47:59;9.93;;;5.57;;
36475;SDS011;56615;42.682;23.364;2023-09-19T02:50:25;12.57;;;6.60;;
36475;SDS011;56615;42.682;23.364;2023-09-19T02:52:50;11.95;;;5.90;;
36475;SDS011;56615;42.682;23.364;2023-09-19T02:55:16;11.48;;;5.88;;
36475;SDS011;56615;42.682;23.364;2023-09-19T02:57:50;12.32;;;6.57;;
36475;SDS011;56615;42.682;23.364;2023-09-19T03:00:16;15.63;;;7.88;;
36475;SDS011;56615;42.682;23.364;2023-09-19T03:02:45;13.90;;;6.97;;
36475;SDS011;56615;42.682;23.364;2023-09-19T03:05:11;10.77;;;6.50;;
36475;SDS011;56615;42.682;23.364;2023-09-19T03:07:37;12.27;;;6.15;;
36475;SDS011;56615;42.682;23.364;2023-09-19T03:10:19;11.48;;;6.45;;
36475;SDS011;56615;42.682;23.364;2023-09-19T03:12:45;11.43;;;6.28;;
36475;SDS011;56615;42.682;23.364;2023-09-19T03:15:11;11.18;;;5.95;;
36475;SDS011;56615;42.682;23.364;2023-09-19T03:17:44;13.70;;;6.38;;
36475;SDS011;56615;42.682;23.364;2023-09-19T03:20:10;11.65;;;6.00;;
36475;SDS011;56615;42.682;23.364;2023-09-19T03:22:39;11.10;;;6.28;;
36475;SDS011;56615;42.682;23.364;2023-09-19T03:25:06;13.68;;;6.30;;
36475;SDS011;56615;42.682;23.364;2023-09-19T03:27:37;10.48;;;5.75;;
36475;SDS011;56615;42.682;23.364;2023-09-19T03:30:06;14.38;;;5.80;;
36475;SDS011;56615;42.682;23.364;2023-09-19T03:32:34;10.23;;;6.05;;
36475;SDS011;56615;42.682;23.364;2023-09-19T03:35:02;10.52;;;5.50;;
36475;SDS011;56615;42.682;23.364;2023-09-19T03:37:30;9.35;;;5.50;;
36475;SDS011;56615;42.682;23.364;2023-09-19T03:39:59;9.63;;;5.30;;
36475;SDS011;56615;42.682;23.364;2023-09-19T03:42:31;9.85;;;5.28;;
36475;SDS011;56615;42.682;23.364;2023-09-19T03:44:56;10.27;;;5.80;;
36475;SDS011;56615;42.682;23.364;2023-09-19T03:47:25;11.25;;;6.28;;
36475;SDS011;56615;42.682;23.364;2023-09-19T03:49:51;13.65;;;6.63;;
36475;SDS011;56615;42.682;23.364;2023-09-19T03:52:17;11.07;;;6.22;;
36475;SDS011;56615;42.682;23.364;2023-09-19T03:54:43;10.82;;;6.40;;
36475;SDS011;56615;42.682;23.364;2023-09-19T03:57:08;13.48;;;7.60;;
36475;SDS011;56615;42.682;23.364;2023-09-19T03:59:34;14.00;;;7.70;;
36475;SDS011;56615;42.682;23.364;2023-09-19T04:02:02;15.30;;;7.53;;
36475;SDS011;56615;42.682;23.364;2023-09-19T04:04:29;14.57;;;8.00;;
36475;SDS011;56615;42.682;23.364;2023-09-19T04:06:57;13.23;;;7.32;;
36475;SDS011;56615;42.682;23.364;2023-09-19T04:09:23;11.88;;;7.18;;
36475;SDS011;56615;42.682;23.364;2023-09-19T04:11:50;11.23;;;6.45;;
36475;SDS011;56615;42.682;23.364;2023-09-19T04:14:16;11.95;;;6.57;;
36475;SDS011;56615;42.682;23.364;2023-09-19T04:16:42;10.63;;;6.20;;
36475;SDS011;56615;42.682;23.364;2023-09-19T04:19:08;11.32;;;6.75;;
36475;SDS011;56615;42.682;23.364;2023-09-19T04:21:33;15.55;;;7.20;;
36475;SDS011;56615;42.682;23.364;2023-09-19T04:23:59;12.93;;;6.22;;
36475;SDS011;56615;42.682;23.364;2023-09-19T04:26:35;10.43;;;5.35;;
36475;SDS011;56615;42.682;23.364;2023-09-19T04:29:09;14.80;;;6.00;;
36475;SDS011;56615;42.682;23.364;2023-09-19T04:31:39;12.50;;;5.75;;
36475;SDS011;56615;42.682;23.364;2023-09-19T04:34:06;11.05;;;5.47;;
36475;SDS011;56615;42.682;23.364;2023-09-19T04:36:32;9.98;;;5.75;;
36475;SDS011;56615;42.682;23.364;2023-09-19T04:38:58;11.27;;;5.35;;
36475;SDS011;56615;42.682;23.364;2023-09-19T04:41:24;8.95;;;5.30;;
36475;SDS011;56615;42.682;23.364;2023-09-19T04:43:52;12.27;;;6.90;;
36475;SDS011;56615;42.682;23.364;2023-09-19T04:46:19;11.48;;;6.20;;
36475;SDS011;56615;42.682;23.364;2023-09-19T04:48:44;9.57;;;5.43;;
36475;SDS011;56615;42.682;23.364;2023-09-19T04:51:09;13.55;;;6.30;;
36475;SDS011;56615;42.682;23.364;2023-09-19T04:53:36;11.07;;;6.10;;
36475;SDS011;56615;42.682;23.364;2023-09-19T04:56:01;11.13;;;6.15;;
36475;SDS011;56615;42.682;23.364;2023-09-19T04:58:30;10.88;;;5.72;;
36475;SDS011;56615;42.682;23.364;2023-09-19T05:00:55;16.40;;;5.95;;
36475;SDS011;56615;42.682;23.364;2023-09-19T05:03:22;11.80;;;6.00;;
36475;SDS011;56615;42.682;23.364;2023-09-19T05:05:48;9.43;;;5.78;;
36475;SDS011;56615;42.682;23.364;2023-09-19T05:08:14;12.73;;;5.82;;
36475;SDS011;56615;42.682;23.364;2023-09-19T05:10:40;19.83;;;6.35;;
36475;SDS011;56615;42.682;23.364;2023-09-19T05:13:05;13.00;;;5.75;;
36475;SDS011;56615;42.682;23.364;2023-09-19T05:15:32;11.15;;;5.43;;
36475;SDS011;56615;42.682;23.364;2023-09-19T05:17:58;10.02;;;5.82;;
36475;SDS011;56615;42.682;23.364;2023-09-19T05:20:23;10.40;;;5.47;;
36475;SDS011;56615;42.682;23.364;2023-09-19T05:23:04;10.70;;;5.05;;
36475;SDS011;56615;42.682;23.364;2023-09-19T05:25:34;11.10;;;5.30;;
36475;SDS011;56615;42.682;23.364;2023-09-19T05:28:04;8.57;;;4.82;;
36475;SDS011;56615;42.682;23.364;2023-09-19T05:30:31;9.45;;;4.88;;
36475;SDS011;56615;42.682;23.364;2023-09-19T05:32:57;7.65;;;4.75;;
36475;SDS011;56615;42.682;23.364;2023-09-19T05:35:23;10.48;;;4.30;;
36475;SDS011;56615;42.682;23.364;2023-09-19T05:37:52;10.73;;;4.35;;
36475;SDS011;56615;42.682;23.364;2023-09-19T05:40:19;7.60;;;4.05;;
36475;SDS011;56615;42.682;23.364;2023-09-19T05:42:44;8.30;;;4.60;;
36475;SDS011;56615;42.682;23.364;2023-09-19T05:45:11;7.85;;;4.35;;
36475;SDS011;56615;42.682;23.364;2023-09-19T05:47:41;8.57;;;3.60;;
36475;SDS011;56615;42.682;23.364;2023-09-19T05:50:10;8.38;;;4.10;;
36475;SDS011;56615;42.682;23.364;2023-09-19T05:52:36;6.90;;;4.07;;
36475;SDS011;56615;42.682;23.364;2023-09-19T05:55:03;8.98;;;4.10;;
36475;SDS011;56615;42.682;23.364;2023-09-19T05:57:31;6.35;;;3.80;;
36475;SDS011;56615;42.682;23.364;2023-09-19T05:59:57;8.65;;;4.05;;
36475;SDS011;56615;42.682;23.364;2023-09-19T06:02:23;6.43;;;3.88;;
36475;SDS011;56615;42.682;23.364;2023-09-19T06:04:48;7.65;;;4.10;;
36475;SDS011;56615;42.682;23.364;2023-09-19T06:07:14;8.77;;;4.32;;
36475;SDS011;56615;42.682;23.364;2023-09-19T06:09:41;8.02;;;3.85;;
36475;SDS011;56615;42.682;23.364;2023-09-19T06:12:09;9.65;;;4.18;;
36475;SDS011;56615;42.682;23.364;2023-09-19T06:14:42;9.55;;;4.00;;
36475;SDS011;56615;42.682;23.364;2023-09-19T06:17:08;6.30;;;3.63;;
36475;SDS011;56615;42.682;23.364;2023-09-19T06:19:36;6.82;;;3.60;;
36475;SDS011;56615;42.682;23.364;2023-09-19T06:22:03;10.20;;;3.97;;
36475;SDS011;56615;42.682;23.364;2023-09-19T06:24:28;7.35;;;4.00;;
36475;SDS011;56615;42.682;23.364;2023-09-19T06:26:54;9.18;;;4.40;;
36475;SDS011;56615;42.682;23.364;2023-09-19T06:29:20;9.45;;;4.65;;
36475;SDS011;56615;42.682;23.364;2023-09-19T06:31:45;8.25;;;3.75;;
36475;SDS011;56615;42.682;23.364;2023-09-19T06:34:12;13.63;;;6.00;;
36475;SDS011;56615;42.682;23.364;2023-09-19T06:36:43;9.98;;;4.55;;
36475;SDS011;56615;42.682;23.364;2023-09-19T06:39:13;8.35;;;3.95;;
36475;SDS011;56615;42.682;23.364;2023-09-19T06:41:38;6.80;;;3.75;;
36475;SDS011;56615;42.682;23.364;2023-09-19T06:44:05;8.40;;;3.75;;
36475;SDS011;56615;42.682;23.364;2023-09-19T06:46:36;8.95;;;4.15;;
36475;SDS011;56615;42.682;23.364;2023-09-19T06:49:05;7.82;;;3.75;;
36475;SDS011;56615;42.682;23.364;2023-09-19T06:51:43;6.05;;;3.25;;
36475;SDS011;56615;42.682;23.364;2023-09-19T06:54:09;8.77;;;3.80;;
36475;SDS011;56615;42.682;23.364;2023-09-19T06:56:36;9.82;;;3.65;;
36475;SDS011;56615;42.682;23.364;2023-09-19T06:59:02;7.10;;;3.50;;
36475;SDS011;56615;42.682;23.364;2023-09-19T07:01:28;8.15;;;3.65;;
36475;SDS011;56615;42.682;23.364;2023-09-19T07:03:54;6.93;;;3.50;;
36475;SDS011;56615;42.682;23.364;2023-09-19T07:06:20;7.30;;;3.78;;
36475;SDS011;56615;42.682;23.364;2023-09-19T07:08:45;6.07;;;3.25;;
36475;SDS011;56615;42.682;23.364;2023-09-19T07:11:12;8.10;;;3.40;;
36475;SDS011;56615;42.682;23.364;2023-09-19T07:13:40;9.55;;;3.38;;
36475;SDS011;56615;42.682;23.364;2023-09-19T07:16:06;7.97;;;3.63;;
36475;SDS011;56615;42.682;23.364;2023-09-19T07:18:35;8.93;;;4.15;;
36475;SDS011;56615;42.682;23.364;2023-09-19T07:21:02;7.55;;;3.65;;
36475;SDS011;56615;42.682;23.364;2023-09-19T07:23:33;10.18;;;3.47;;
36475;SDS011;56615;42.682;23.364;2023-09-19T07:26:04;8.55;;;3.72;;
36475;SDS011;56615;42.682;23.364;2023-09-19T07:28:30;9.00;;;3.85;;
36475;SDS011;56615;42.682;23.364;2023-09-19T07:30:59;7.78;;;3.80;;
36475;SDS011;56615;42.682;23.364;2023-09-19T07:33:28;6.75;;;3.45;;
36475;SDS011;56615;42.682;23.364;2023-09-19T07:35:53;13.32;;;3.70;;
36475;SDS011;56615;42.682;23.364;2023-09-19T07:38:21;6.38;;;3.60;;
36475;SDS011;56615;42.682;23.364;2023-09-19T07:40:48;8.10;;;3.45;;
36475;SDS011;56615;42.682;23.364;2023-09-19T07:43:15;9.20;;;3.92;;
36475;SDS011;56615;42.682;23.364;2023-09-19T07:45:43;7.97;;;3.88;;
36475;SDS011;56615;42.682;23.364;2023-09-19T07:48:08;7.47;;;3.75;;
36475;SDS011;56615;42.682;23.364;2023-09-19T07:50:39;7.45;;;3.90;;
36475;SDS011;56615;42.682;23.364;2023-09-19T07:53:10;7.32;;;3.88;;
36475;SDS011;56615;42.682;23.364;2023-09-19T07:55:41;8.25;;;3.78;;
36475;SDS011;56615;42.682;23.364;2023-09-19T07:58:09;8.00;;;3.83;;
36475;SDS011;56615;42.682;23.364;2023-09-19T08:00:37;6.63;;;3.90;;
36475;SDS011;56615;42.682;23.364;2023-09-19T08:03:11;7.13;;;3.67;;
36475;SDS011;56615;42.682;23.364;2023-09-19T08:05:39;10.20;;;4.05;;
36475;SDS011;56615;42.682;23.364;2023-09-19T08:08:08;7.78;;;3.92;;
36475;SDS011;56615;42.682;23.364;2023-09-19T08:10:33;12.43;;;4.43;;
36475;SDS011;56615;42.682;23.364;2023-09-19T08:13:04;6.65;;;3.45;;
36475;SDS011;56615;42.682;23.364;2023-09-19T08:18:01;9.05;;;4.28;;
36475;SDS011;56615;42.682;23.364;2023-09-19T08:20:27;8.18;;;3.95;;
36475;SDS011;56615;42.682;23.364;2023-09-19T08:22:55;9.18;;;4.10;;
36475;SDS011;56615;42.682;23.364;2023-09-19T08:25:23;8.82;;;3.90;;
36475;SDS011;56615;42.682;23.364;2023-09-19T08:28:00;9.18;;;3.80;;
36475;SDS011;56615;42.682;23.364;2023-09-19T08:30:46;8.05;;;3.72;;
36475;SDS011;56615;42.682;23.364;2023-09-19T08:33:13;9.52;;;4.10;;
36475;SDS011;56615;42.682;23.364;2023-09-19T08:35:40;13.15;;;4.20;;
36475;SDS011;56615;42.682;23.364;2023-09-19T08:38:08;8.77;;;4.30;;
36475;SDS011;56615;42.682;23.364;2023-09-19T08:40:37;7.72;;;4.07;;
36475;SDS011;56615;42.682;23.364;2023-09-19T08:43:04;9.25;;;4.60;;
36475;SDS011;56615;42.682;23.364;2023-09-19T08:45:32;14.05;;;4.70;;
36475;SDS011;56615;42.682;23.364;2023-09-19T08:50:33;8.57;;;4.40;;
36475;SDS011;56615;42.682;23.364;2023-09-19T08:53:08;9.18;;;4.18;;
36475;SDS011;56615;42.682;23.364;2023-09-19T08:55:38;10.30;;;4.50;;
36475;SDS011;56615;42.682;23.364;2023-09-19T08:58:10;9.20;;;4.80;;
36475;SDS011;56615;42.682;23.364;2023-09-19T09:00:38;10.18;;;4.20;;
36475;SDS011;56615;42.682;23.364;2023-09-19T09:03:09;10.07;;;4.30;;
36475;SDS011;56615;42.682;23.364;2023-09-19T09:05:39;12.05;;;4.93;;
36475;SDS011;56615;42.682;23.364;2023-09-19T09:08:07;10.77;;;4.88;;
36475;SDS011;56615;42.682;23.364;2023-09-19T09:10:32;10.90;;;4.63;;
36475;SDS011;56615;42.682;23.364;2023-09-19T09:12:58;10.45;;;5.93;;
36475;SDS011;56615;42.682;23.364;2023-09-19T09:15:23;10.07;;;4.80;;
36475;SDS011;56615;42.682;23.364;2023-09-19T09:17:49;9.65;;;4.88;;
36475;SDS011;56615;42.682;23.364;2023-09-19T09:20:18;9.43;;;4.47;;
36475;SDS011;56615;42.682;23.364;2023-09-19T09:22:54;9.38;;;5.25;;
36475;SDS011;56615;42.682;23.364;2023-09-19T09:29:08;16.40;;;4.97;;
36475;SDS011;56615;42.682;23.364;2023-09-19T09:31:34;11.10;;;4.45;;
36475;SDS011;56615;42.682;23.364;2023-09-19T09:33:59;10.43;;;4.82;;
36475;SDS011;56615;42.682;23.364;2023-09-19T09:36:35;16.95;;;9.35;;
36475;SDS011;56615;42.682;23.364;2023-09-19T09:39:06;13.10;;;6.00;;
36475;SDS011;56615;42.682;23.364;2023-09-19T09:41:43;8.35;;;4.15;;
36475;SDS011;56615;42.682;23.364;2023-09-19T09:44:18;9.30;;;4.40;;
36475;SDS011;56615;42.682;23.364;2023-09-19T09:46:44;8.32;;;3.92;;
36475;SDS011;56615;42.682;23.364;2023-09-19T09:49:23;7.70;;;4.00;;
36475;SDS011;56615;42.682;23.364;2023-09-19T09:54:30;8.50;;;4.20;;
36475;SDS011;56615;42.682;23.364;2023-09-19T09:59:48;10.13;;;4.70;;
36475;SDS011;56615;42.682;23.364;2023-09-19T10:02:27;6.03;;;3.70;;
36475;SDS011;56615;42.682;23.364;2023-09-19T10:05:15;10.60;;;3.88;;
36475;SDS011;56615;42.682;23.364;2023-09-19T10:07:53;8.68;;;4.15;;
36475;SDS011;56615;42.682;23.364;2023-09-19T10:10:35;7.18;;;3.67;;
36475;SDS011;56615;42.682;23.364;2023-09-19T10:13:07;8.80;;;3.67;;
36475;SDS011;56615;42.682;23.364;2023-09-19T10:15:43;9.15;;;4.63;;
36475;SDS011;56615;42.682;23.364;2023-09-19T10:18:16;10.57;;;4.35;;
36475;SDS011;56615;42.682;23.364;2023-09-19T10:20:52;11.40;;;4.30;;
36475;SDS011;56615;42.682;23.364;2023-09-19T10:23:20;9.32;;;3.85;;
36475;SDS011;56615;42.682;23.364;2023-09-19T10:25:51;6.70;;;4.03;;
36475;SDS011;56615;42.682;23.364;2023-09-19T10:28:17;9.27;;;4.35;;
36475;SDS011;56615;42.682;23.364;2023-09-19T10:30:47;8.95;;;4.85;;
36475;SDS011;56615;42.682;23.364;2023-09-19T10:33:15;7.97;;;4.20;;
36475;SDS011;56615;42.682;23.364;2023-09-19T10:35:45;9.68;;;4.60;;
36475;SDS011;56615;42.682;23.364;2023-09-19T10:38:13;11.48;;;4.68;;
36475;SDS011;56615;42.682;23.364;2023-09-19T10:40:40;7.55;;;4.32;;
36475;SDS011;56615;42.682;23.364;2023-09-19T10:43:15;10.52;;;5.13;;
36475;SDS011;56615;42.682;23.364;2023-09-19T10:45:45;18.08;;;11.55;;
36475;SDS011;56615;42.682;23.364;2023-09-19T10:48:14;11.75;;;6.80;;
36475;SDS011;56615;42.682;23.364;2023-09-19T10:53:29;9.80;;;5.72;;
36475;SDS011;56615;42.682;23.364;2023-09-19T10:56:05;13.50;;;5.18;;
36475;SDS011;56615;42.682;23.364;2023-09-19T10:58:42;9.10;;;4.82;;
36475;SDS011;56615;42.682;23.364;2023-09-19T11:01:09;9.52;;;4.70;;
36475;SDS011;56615;42.682;23.364;2023-09-19T11:03:37;8.07;;;4.32;;
36475;SDS011;56615;42.682;23.364;2023-09-19T11:30:38;11.52;;;6.95;;
36475;SDS011;56615;42.682;23.364;2023-09-19T11:43:50;9.38;;;4.68;;
36475;SDS011;56615;42.682;23.364;2023-09-19T11:48:50;8.60;;;4.90;;
36475;SDS011;56615;42.682;23.364;2023-09-19T11:51:19;11.95;;;5.13;;
36475;SDS011;56615;42.682;23.364;2023-09-19T11:53:52;8.95;;;4.90;;
36475;SDS011;56615;42.682;23.364;2023-09-19T11:56:18;8.32;;;5.18;;
36475;SDS011;56615;42.682;23.364;2023-09-19T11:58:46;7.90;;;4.03;;
36475;SDS011;56615;42.682;23.364;2023-09-19T12:01:14;9.48;;;4.60;;
36475;SDS011;56615;42.682;23.364;2023-09-19T12:03:47;10.37;;;4.37;;
36475;SDS011;56615;42.682;23.364;2023-09-19T12:06:19;10.00;;;4.35;;
36475;SDS011;56615;42.682;23.364;2023-09-19T12:08:46;9.00;;;4.40;;
36475;SDS011;56615;42.682;23.364;2023-09-19T12:11:15;8.27;;;4.38;;
36475;SDS011;56615;42.682;23.364;2023-09-19T12:13:45;7.57;;;4.25;;
36475;SDS011;56615;42.682;23.364;2023-09-19T12:16:15;7.82;;;4.28;;
36475;SDS011;56615;42.682;23.364;2023-09-19T12:18:42;11.93;;;4.55;;
36475;SDS011;56615;42.682;23.364;2023-09-19T12:21:20;10.48;;;4.97;;
36475;SDS011;56615;42.682;23.364;2023-09-19T12:26:45;12.52;;;7.78;;
36475;SDS011;56615;42.682;23.364;2023-09-19T12:29:18;8.18;;;4.70;;
36475;SDS011;56615;42.682;23.364;2023-09-19T12:31:55;8.38;;;4.22;;
36475;SDS011;56615;42.682;23.364;2023-09-19T12:34:27;9.05;;;4.55;;
36475;SDS011;56615;42.682;23.364;2023-09-19T12:37:07;10.75;;;4.65;;
36475;SDS011;56615;42.682;23.364;2023-09-19T12:39:40;9.40;;;4.70;;
36475;SDS011;56615;42.682;23.364;2023-09-19T12:42:25;11.13;;;5.07;;
36475;SDS011;56615;42.682;23.364;2023-09-19T12:44:57;12.07;;;4.72;;
36475;SDS011;56615;42.682;23.364;2023-09-19T12:47:26;8.85;;;4.35;;
36475;SDS011;56615;42.682;23.364;2023-09-19T12:50:13;7.30;;;4.93;;
36475;SDS011;56615;42.682;23.364;2023-09-19T12:52:42;9.68;;;4.78;;
36475;SDS011;56615;42.682;23.364;2023-09-19T12:55:29;8.38;;;4.35;;
36475;SDS011;56615;42.682;23.364;2023-09-19T12:58:13;6.85;;;4.63;;
36475;SDS011;56615;42.682;23.364;2023-09-19T13:00:44;9.20;;;4.63;;
36475;SDS011;56615;42.682;23.364;2023-09-19T13:03:29;12.15;;;5.00;;
36475;SDS011;56615;42.682;23.364;2023-09-19T13:06:00;13.63;;;5.05;;
36475;SDS011;56615;42.682;23.364;2023-09-19T13:08:34;8.30;;;4.57;;
36475;SDS011;56615;42.682;23.364;2023-09-19T13:13:39;9.55;;;4.88;;
36475;SDS011;56615;42.682;23.364;2023-09-19T13:16:18;8.70;;;4.30;;
36475;SDS011;56615;42.682;23.364;2023-09-19T13:18:48;10.50;;;4.57;;
36475;SDS011;56615;42.682;23.364;2023-09-19T13:21:28;9.48;;;4.25;;
36475;SDS011;56615;42.682;23.364;2023-09-19T13:24:21;8.48;;;4.68;;
36475;SDS011;56615;42.682;23.364;2023-09-19T13:26:55;8.52;;;5.03;;
36475;SDS011;56615;42.682;23.364;2023-09-19T13:29:21;9.70;;;4.93;;
36475;SDS011;56615;42.682;23.364;2023-09-19T13:31:50;8.00;;;4.70;;
36475;SDS011;56615;42.682;23.364;2023-09-19T13:34:18;6.57;;;4.47;;
36475;SDS011;56615;42.682;23.364;2023-09-19T13:36:46;9.50;;;4.72;;
36475;SDS011;56615;42.682;23.364;2023-09-19T13:39:16;9.10;;;4.60;;
36475;SDS011;56615;42.682;23.364;2023-09-19T13:41:46;9.25;;;4.80;;
36475;SDS011;56615;42.682;23.364;2023-09-19T13:44:12;8.20;;;4.88;;
36475;SDS011;56615;42.682;23.364;2023-09-19T13:50:02;10.07;;;4.70;;
36475;SDS011;56615;42.682;23.364;2023-09-19T13:52:31;10.45;;;5.32;;
36475;SDS011;56615;42.682;23.364;2023-09-19T13:54:57;9.43;;;4.78;;
36475;SDS011;56615;42.682;23.364;2023-09-19T13:57:23;8.18;;;4.82;;
36475;SDS011;56615;42.682;23.364;2023-09-19T13:59:55;10.40;;;5.10;;
36475;SDS011;56615;42.682;23.364;2023-09-19T14:02:24;8.73;;;4.72;;
36475;SDS011;56615;42.682;23.364;2023-09-19T14:04:50;12.70;;;4.85;;
36475;SDS011;56615;42.682;23.364;2023-09-19T14:07:17;10.50;;;4.90;;
36475;SDS011;56615;42.682;23.364;2023-09-19T14:10:06;8.50;;;4.95;;
36475;SDS011;56615;42.682;23.364;2023-09-19T14:12:56;7.53;;;4.68;;
36475;SDS011;56615;42.682;23.364;2023-09-19T14:21:33;7.55;;;4.72;;
36475;SDS011;56615;42.682;23.364;2023-09-19T14:24:02;9.98;;;5.50;;
36475;SDS011;56615;42.682;23.364;2023-09-19T14:26:49;8.70;;;5.15;;
36475;SDS011;56615;42.682;23.364;2023-09-19T14:29:16;9.63;;;4.55;;
36475;SDS011;56615;42.682;23.364;2023-09-19T14:31:53;7.22;;;4.75;;
36475;SDS011;56615;42.682;23.364;2023-09-19T14:34:22;8.82;;;5.07;;
36475;SDS011;56615;42.682;23.364;2023-09-19T14:39:34;9.30;;;5.10;;
36475;SDS011;56615;42.682;23.364;2023-09-19T14:42:11;9.32;;;4.85;;
36475;SDS011;56615;42.682;23.364;2023-09-19T14:44:50;12.38;;;5.40;;
36475;SDS011;56615;42.682;23.364;2023-09-19T14:48:32;10.38;;;5.10;;
36475;SDS011;56615;42.682;23.364;2023-09-19T14:51:04;10.80;;;4.40;;
36475;SDS011;56615;42.682;23.364;2023-09-19T14:53:33;9.00;;;5.15;;
36475;SDS011;56615;42.682;23.364;2023-09-19T14:56:06;9.40;;;5.50;;
36475;SDS011;56615;42.682;23.364;2023-09-19T14:58:43;11.90;;;5.32;;
36475;SDS011;56615;42.682;23.364;2023-09-19T15:01:09;7.68;;;5.03;;
36475;SDS011;56615;42.682;23.364;2023-09-19T15:03:36;9.13;;;5.07;;
36475;SDS011;56615;42.682;23.364;2023-09-19T15:06:02;7.50;;;4.85;;
36475;SDS011;56615;42.682;23.364;2023-09-19T15:08:31;10.48;;;5.07;;
36475;SDS011;56615;42.682;23.364;2023-09-19T15:11:01;9.00;;;4.68;;
36475;SDS011;56615;42.682;23.364;2023-09-19T15:13:30;9.52;;;5.30;;
36475;SDS011;56615;42.682;23.364;2023-09-19T15:16:01;9.07;;;5.53;;
36475;SDS011;56615;42.682;23.364;2023-09-19T15:18:30;9.75;;;5.15;;
36475;SDS011;56615;42.682;23.364;2023-09-19T15:21:14;8.02;;;4.90;;
36475;SDS011;56615;42.682;23.364;2023-09-19T15:23:41;11.35;;;5.10;;
36475;SDS011;56615;42.682;23.364;2023-09-19T15:26:09;10.68;;;5.32;;
36475;SDS011;56615;42.682;23.364;2023-09-19T15:28:36;10.75;;;5.30;;
36475;SDS011;56615;42.682;23.364;2023-09-19T15:34:08;9.20;;;5.35;;
36475;SDS011;56615;42.682;23.364;2023-09-19T15:36:36;10.07;;;4.85;;
36475;SDS011;56615;42.682;23.364;2023-09-19T15:39:04;7.75;;;4.90;;
36475;SDS011;56615;42.682;23.364;2023-09-19T15:41:32;12.85;;;5.32;;
36475;SDS011;56615;42.682;23.364;2023-09-19T15:44:12;9.30;;;5.00;;
36475;SDS011;56615;42.682;23.364;2023-09-19T15:46:42;12.18;;;5.32;;
36475;SDS011;56615;42.682;23.364;2023-09-19T15:49:08;10.88;;;5.70;;
36475;SDS011;56615;42.682;23.364;2023-09-19T15:51:34;9.82;;;5.20;;
36475;SDS011;56615;42.682;23.364;2023-09-19T15:54:10;12.13;;;5.47;;
36475;SDS011;56615;42.682;23.364;2023-09-19T15:56:58;8.93;;;5.13;;
36475;SDS011;56615;42.682;23.364;2023-09-19T15:59:45;12.18;;;5.32;;
36475;SDS011;56615;42.682;23.364;2023-09-19T16:06:13;11.38;;;4.95;;
36475;SDS011;56615;42.682;23.364;2023-09-19T16:12:02;9.52;;;4.95;;
36475;SDS011;56615;42.682;23.364;2023-09-19T16:17:59;10.02;;;5.25;;
36475;SDS011;56615;42.682;23.364;2023-09-19T16:29:19;11.07;;;6.10;;
36475;SDS011;56615;42.682;23.364;2023-09-19T16:32:30;12.27;;;5.05;;
36475;SDS011;56615;42.682;23.364;2023-09-19T16:34:55;9.10;;;4.85;;
36475;SDS011;56615;42.682;23.364;2023-09-19T16:37:21;10.52;;;4.93;;
36475;SDS011;56615;42.682;23.364;2023-09-19T16:39:47;11.52;;;5.30;;